Time;durP1;ratioP1;P1;durP2;ratioP2;P2;SDS_P1;SDS_P2;PMS_P1;PMS_P2;Temp;Humidity;BMP_temperature;BMP_pressure;BME280_temperature;BME280_humidity;BME280_pressure;Samples;Min_cycle;Max_cycle;Signal;HPM_P1;HPM_P2
2022/05/30 00:01:36;;;;;;;1.30;1.10;;;6.50;99.90;;;;;;4992348;28;20036;-78
2022/05/30 00:04:05;;;;;;;2.22;1.15;;;6.40;99.90;;;;;;4993430;28;20118;-78
2022/05/30 00:06:30;;;;;;;3.15;1.83;;;6.40;99.90;;;;;;4990854;28;20037;-77
2022/05/30 00:08:56;;;;;;;2.15;1.58;;;6.30;99.90;;;;;;4989815;28;20108;-77
2022/05/30 00:11:22;;;;;;;5.20;2.20;;;6.30;99.90;;;;;;5007114;28;20203;-77
2022/05/30 00:13:49;;;;;;;3.40;1.92;;;6.20;99.90;;;;;;4975762;28;20511;-77
2022/05/30 00:16:22;;;;;;;3.03;1.60;;;6.20;99.90;;;;;;4993497;28;20029;-76
2022/05/30 00:18:48;;;;;;;3.10;2.47;;;6.20;99.90;;;;;;4994312;28;20473;-77
2022/05/30 00:21:20;;;;;;;2.53;1.70;;;6.20;99.90;;;;;;5010821;28;20037;-78
2022/05/30 00:23:46;;;;;;;3.22;1.60;;;6.20;99.90;;;;;;5012885;28;20301;-78
2022/05/30 00:26:12;;;;;;;5.43;1.60;;;6.20;99.90;;;;;;4967714;28;20048;-76
2022/05/30 00:28:37;;;;;;;1.25;1.10;;;6.20;99.90;;;;;;4979061;28;20049;-76
2022/05/30 00:31:08;;;;;;;1.73;1.30;;;6.20;99.90;;;;;;5010272;28;20053;-78
2022/05/30 00:33:33;;;;;;;1.45;1.35;;;6.20;99.90;;;;;;5012957;28;20048;-76
2022/05/30 00:35:59;;;;;;;2.17;1.17;;;6.20;99.90;;;;;;4996193;28;20029;-78
2022/05/30 00:38:25;;;;;;;3.25;1.65;;;6.10;99.90;;;;;;4979875;28;20030;-77
2022/05/30 00:40:51;;;;;;;1.70;1.60;;;6.10;99.90;;;;;;4989791;28;20022;-78
2022/05/30 00:43:27;;;;;;;2.15;1.58;;;6.10;99.90;;;;;;5003371;28;20040;-78
2022/05/30 00:45:55;;;;;;;4.25;1.73;;;6.00;99.90;;;;;;5000349;28;20029;-76
2022/05/30 00:48:30;;;;;;;3.20;1.58;;;6.00;99.90;;;;;;4980495;28;20049;-77
2022/05/30 00:51:01;;;;;;;3.47;2.17;;;5.90;99.90;;;;;;4992712;28;20033;-77
2022/05/30 00:53:28;;;;;;;2.65;1.77;;;5.90;99.90;;;;;;4991417;28;20293;-78
2022/05/30 00:55:54;;;;;;;3.03;2.05;;;5.90;99.90;;;;;;4993141;28;20026;-78
2022/05/30 00:58:21;;;;;;;4.03;2.40;;;5.90;99.90;;;;;;5010990;28;20033;-78
2022/05/30 01:00:47;;;;;;;2.97;2.00;;;5.90;99.90;;;;;;4991572;28;20095;-77
2022/05/30 01:08:42;;;;;;;2.22;1.83;;;5.90;99.90;;;;;;4997356;28;20612;-78
2022/05/30 01:11:08;;;;;;;2.42;1.67;;;5.90;99.90;;;;;;4993705;28;20042;-77
2022/05/30 01:13:33;;;;;;;2.60;1.92;;;5.80;99.90;;;;;;4993474;28;20030;-78
2022/05/30 01:15:59;;;;;;;1.20;1.10;;;5.80;99.90;;;;;;4973548;28;20057;-77
2022/05/30 01:19:01;;;;;;;2.03;1.55;;;5.90;99.90;;;;;;4991300;28;20136;-78
2022/05/30 01:21:35;;;;;;;1.80;1.65;;;5.90;99.90;;;;;;4983902;28;20113;-77
2022/05/30 01:24:32;;;;;;;2.47;1.70;;;5.80;99.90;;;;;;4994581;28;20033;-76
2022/05/30 01:27:39;;;;;;;2.75;1.40;;;5.80;99.90;;;;;;5001541;28;20091;-76
2022/05/30 01:30:13;;;;;;;1.73;1.52;;;5.80;99.90;;;;;;5024087;28;20054;-78
2022/05/30 01:32:40;;;;;;;1.50;1.37;;;5.70;99.90;;;;;;5012824;28;20040;-78
2022/05/30 01:35:06;;;;;;;2.42;2.13;;;5.70;99.90;;;;;;5019885;28;20046;-77
2022/05/30 01:37:36;;;;;;;2.53;1.88;;;5.60;99.90;;;;;;5003760;28;20037;-78
2022/05/30 01:40:03;;;;;;;2.58;1.65;;;5.60;99.90;;;;;;5005246;28;20082;-78
2022/05/30 01:42:29;;;;;;;2.22;1.50;;;5.60;99.90;;;;;;5004225;28;20065;-78
2022/05/30 01:44:56;;;;;;;3.78;2.40;;;5.50;99.90;;;;;;4988379;28;20026;-78
2022/05/30 01:47:22;;;;;;;2.10;1.63;;;5.50;99.90;;;;;;5003497;28;20122;-78
2022/05/30 01:49:48;;;;;;;3.90;1.50;;;5.50;99.90;;;;;;4991377;28;20050;-78
2022/05/30 01:52:14;;;;;;;2.80;1.63;;;5.50;99.90;;;;;;5002585;28;20420;-78
2022/05/30 01:54:40;;;;;;;2.65;1.70;;;5.40;99.90;;;;;;5000317;28;20030;-78
2022/05/30 01:57:38;;;;;;;2.25;1.60;;;5.40;99.90;;;;;;4996607;28;20045;-78
2022/05/30 02:00:26;;;;;;;2.30;1.92;;;5.40;99.90;;;;;;4980664;28;20049;-77
2022/05/30 02:02:52;;;;;;;1.65;1.50;;;5.40;99.90;;;;;;4983626;28;20038;-78
2022/05/30 02:05:19;;;;;;;3.03;1.60;;;5.40;99.90;;;;;;4980093;28;20083;-77
2022/05/30 02:07:45;;;;;;;2.92;1.55;;;5.30;99.90;;;;;;5014855;28;20112;-77
2022/05/30 02:10:15;;;;;;;2.33;1.58;;;5.30;99.90;;;;;;4982005;28;20056;-77
2022/05/30 02:12:41;;;;;;;3.38;1.60;;;5.30;99.90;;;;;;5013535;28;20033;-78
2022/05/30 02:15:17;;;;;;;2.45;1.70;;;5.30;99.90;;;;;;4999158;28;20069;-78
2022/05/30 02:17:43;;;;;;;3.65;1.77;;;5.20;99.90;;;;;;5009109;28;20025;-78
2022/05/30 02:20:10;;;;;;;2.35;1.50;;;5.20;99.90;;;;;;4967745;28;20061;-78
2022/05/30 02:22:36;;;;;;;2.25;2.05;;;5.20;99.90;;;;;;5007274;28;20034;-78
2022/05/30 02:25:02;;;;;;;2.72;1.60;;;5.20;99.90;;;;;;4999280;28;20041;-78
2022/05/30 02:27:29;;;;;;;2.70;1.70;;;5.20;99.90;;;;;;4986073;28;20040;-78
2022/05/30 02:29:55;;;;;;;2.08;1.52;;;5.10;99.90;;;;;;4998674;28;20026;-78
2022/05/30 02:32:22;;;;;;;2.67;2.08;;;5.10;99.90;;;;;;4994948;28;20041;-78
2022/05/30 02:37:33;;;;;;;1.52;1.27;;;5.10;99.90;;;;;;4999927;28;20030;-78
2022/05/30 02:40:17;;;;;;;3.90;1.90;;;5.00;99.90;;;;;;4991551;28;20038;-78
2022/05/30 02:43:11;;;;;;;2.08;1.83;;;5.00;99.90;;;;;;5014774;28;20116;-78
2022/05/30 02:45:41;;;;;;;1.92;1.80;;;5.00;99.90;;;;;;5001172;28;20428;-78
2022/05/30 02:48:08;;;;;;;2.65;1.63;;;5.00;99.90;;;;;;4996267;28;20065;-78
2022/05/30 02:50:34;;;;;;;3.80;1.67;;;5.00;99.90;;;;;;4997249;28;20052;-78
2022/05/30 02:53:02;;;;;;;2.63;1.92;;;5.00;99.90;;;;;;4998079;28;20025;-78
2022/05/30 02:55:54;;;;;;;3.33;1.95;;;5.00;99.90;;;;;;5008259;28;20041;-77
2022/05/30 02:58:20;;;;;;;2.45;1.38;;;4.90;99.90;;;;;;5014499;28;20094;-78
2022/05/30 03:00:46;;;;;;;2.30;1.60;;;4.90;99.90;;;;;;4995867;28;20874;-78
2022/05/30 03:03:11;;;;;;;2.15;1.73;;;4.90;99.90;;;;;;4990758;28;20116;-77
2022/05/30 03:05:38;;;;;;;4.10;1.73;;;4.90;99.90;;;;;;4977532;28;20038;-77
2022/05/30 03:08:07;;;;;;;1.80;1.70;;;4.90;99.90;;;;;;4996812;28;20064;-78
2022/05/30 03:10:56;;;;;;;2.00;1.80;;;4.90;99.90;;;;;;4972542;28;20033;-79
2022/05/30 03:13:22;;;;;;;3.25;1.77;;;4.90;99.90;;;;;;4988458;28;20481;-79
2022/05/30 03:15:47;;;;;;;2.90;1.98;;;4.80;99.90;;;;;;4997474;28;20026;-78
2022/05/30 03:18:13;;;;;;;1.98;1.70;;;4.80;99.90;;;;;;4997438;28;20029;-78
2022/05/30 03:20:40;;;;;;;1.80;1.45;;;4.70;99.90;;;;;;5019656;28;20022;-79
2022/05/30 03:23:06;;;;;;;2.25;1.67;;;4.70;99.90;;;;;;5005005;28;20038;-78
2022/05/30 03:25:50;;;;;;;2.05;1.48;;;4.70;99.90;;;;;;5001559;28;20033;-78
2022/05/30 03:28:15;;;;;;;2.53;1.50;;;4.70;99.90;;;;;;5004625;28;20025;-78
2022/05/30 03:30:41;;;;;;;1.90;1.70;;;4.70;99.90;;;;;;4987210;28;20528;-79
2022/05/30 03:33:10;;;;;;;2.17;1.67;;;4.70;99.90;;;;;;5010819;28;20038;-78
2022/05/30 03:35:37;;;;;;;3.50;1.73;;;4.70;99.90;;;;;;5011692;28;20034;-79
2022/05/30 03:38:35;;;;;;;2.17;1.73;;;4.70;99.90;;;;;;5022343;28;20075;-78
2022/05/30 03:41:21;;;;;;;2.70;1.67;;;4.70;99.90;;;;;;5007813;28;20042;-78
2022/05/30 03:44:00;;;;;;;1.67;1.55;;;4.70;99.90;;;;;;4984938;28;20034;-78
2022/05/30 03:46:30;;;;;;;2.05;1.50;;;4.70;99.90;;;;;;4984893;28;20034;-78
2022/05/30 03:48:56;;;;;;;2.75;1.60;;;4.70;99.90;;;;;;4999886;28;20136;-78
2022/05/30 03:51:22;;;;;;;1.55;1.45;;;4.70;99.90;;;;;;4980728;28;20080;-78
2022/05/30 03:53:51;;;;;;;1.55;1.45;;;4.70;99.90;;;;;;4965743;28;20033;-78
2022/05/30 03:56:18;;;;;;;2.40;1.48;;;4.70;99.90;;;;;;5003343;28;20033;-78
2022/05/30 03:58:44;;;;;;;3.97;1.70;;;4.60;99.90;;;;;;5008124;28;20030;-77
2022/05/30 04:01:10;;;;;;;2.10;1.67;;;4.70;99.90;;;;;;5005933;28;20033;-78
2022/05/30 04:03:39;;;;;;;3.10;1.60;;;4.70;99.90;;;;;;4995574;28;20038;-77
2022/05/30 04:06:05;;;;;;;3.38;1.67;;;4.70;99.90;;;;;;4996512;28;20054;-78
2022/05/30 04:08:31;;;;;;;3.15;1.77;;;4.70;99.90;;;;;;5002463;28;20068;-78
2022/05/30 04:11:15;;;;;;;2.58;1.75;;;4.80;99.90;;;;;;5001995;28;20044;-77
2022/05/30 04:13:41;;;;;;;4.40;2.22;;;4.80;99.90;;;;;;5018365;28;20136;-78
2022/05/30 04:16:24;;;;;;;2.53;2.00;;;4.90;99.90;;;;;;4975686;28;20034;-79
2022/05/30 04:18:50;;;;;;;2.05;1.85;;;4.90;99.90;;;;;;4990965;28;20034;-78
2022/05/30 04:21:17;;;;;;;2.42;2.20;;;5.00;99.90;;;;;;4992409;28;20025;-77
2022/05/30 04:23:43;;;;;;;3.60;2.25;;;5.10;99.90;;;;;;5010261;28;20431;-78
2022/05/30 04:26:16;;;;;;;3.33;1.95;;;5.10;99.90;;;;;;5016976;28;20428;-78
2022/05/30 04:28:46;;;;;;;1.50;1.40;;;5.10;99.90;;;;;;5002996;28;20029;-77
2022/05/30 04:31:47;;;;;;;2.08;1.38;;;5.20;99.90;;;;;;4955036;29;20125;-78
2022/05/30 04:34:13;;;;;;;2.28;1.70;;;5.30;99.90;;;;;;4983379;28;20066;-78
2022/05/30 04:36:39;;;;;;;1.35;1.13;;;5.30;99.90;;;;;;4991554;28;20037;-77
2022/05/30 04:39:05;;;;;;;1.92;1.67;;;5.40;99.90;;;;;;5017405;28;20053;-78
2022/05/30 04:41:49;;;;;;;1.83;1.38;;;5.50;99.90;;;;;;5014869;28;20539;-78
2022/05/30 04:44:35;;;;;;;;;;;5.50;99.90;;;;;;4987608;28;20045;-78
2022/05/30 04:47:01;;;;;;;;;;;5.60;99.90;;;;;;5015941;28;19909;-77
2022/05/30 04:49:27;;;;;;;4.03;1.73;;;5.60;99.90;;;;;;5026022;28;19924;-78
2022/05/30 04:51:53;;;;;;;3.10;1.60;;;5.70;99.90;;;;;;4980981;28;20037;-78
2022/05/30 04:54:20;;;;;;;3.38;1.88;;;5.80;99.90;;;;;;4987334;28;20058;-77
2022/05/30 04:56:58;;;;;;;2.10;1.90;;;5.90;99.90;;;;;;5030495;28;20526;-77
2022/05/30 04:59:27;;;;;;;3.15;1.95;;;5.90;99.90;;;;;;4990308;28;20557;-78
2022/05/30 05:02:00;;;;;;;3.97;1.77;;;6.00;99.90;;;;;;4989690;28;20037;-78
2022/05/30 05:04:27;;;;;;;2.70;1.90;;;6.10;99.90;;;;;;4986467;28;20109;-77
2022/05/30 05:06:53;;;;;;;3.42;1.80;;;6.10;99.90;;;;;;4971534;28;20081;-78
2022/05/30 05:09:33;;;;;;;2.00;1.80;;;6.20;99.90;;;;;;4982196;28;20060;-78
2022/05/30 05:12:05;;;;;;;2.60;1.83;;;6.30;99.90;;;;;;5019092;28;20436;-77
2022/05/30 05:15:07;;;;;;;2.42;1.60;;;6.40;99.90;;;;;;4905849;29;20107;-78
2022/05/30 05:18:04;;;;;;;1.92;1.50;;;6.60;99.90;;;;;;4995162;28;20033;-77
2022/05/30 05:20:38;;;;;;;2.20;1.70;;;6.70;99.90;;;;;;4998953;28;20025;-77
2022/05/30 05:23:04;;;;;;;2.55;1.80;;;6.90;99.90;;;;;;5018645;28;20117;-77
2022/05/30 05:25:56;;;;;;;2.03;1.67;;;7.00;99.90;;;;;;4994379;28;20525;-77
2022/05/30 05:28:31;;;;;;;2.08;1.58;;;7.20;99.90;;;;;;4969066;28;20133;-78
2022/05/30 05:30:57;;;;;;;1.75;1.63;;;7.60;99.90;;;;;;4986006;28;20057;-77
2022/05/30 05:33:23;;;;;;;1.45;1.25;;;8.00;99.90;;;;;;5011129;28;20065;-78
2022/05/30 05:35:49;;;;;;;1.58;1.40;;;8.50;99.90;;;;;;5011505;28;20030;-78
2022/05/30 05:38:15;;;;;;;3.15;1.45;;;9.10;99.90;;;;;;5007024;28;20034;-78
2022/05/30 05:40:58;;;;;;;2.53;1.33;;;9.60;99.90;;;;;;5002907;28;20021;-78
2022/05/30 05:43:31;;;;;;;3.40;1.42;;;10.30;99.90;;;;;;5000871;28;20034;-77
2022/05/30 05:45:57;;;;;;;1.23;1.13;;;11.00;99.90;;;;;;5003921;28;20565;-78
2022/05/30 05:48:22;;;;;;;2.72;1.58;;;11.40;99.90;;;;;;5020993;28;20038;-78
2022/05/30 05:50:49;;;;;;;1.85;1.10;;;11.80;99.90;;;;;;5024110;28;20026;-78
2022/05/30 05:53:15;;;;;;;1.52;1.23;;;12.00;99.90;;;;;;4985004;28;20030;-78
2022/05/30 05:55:43;;;;;;;3.05;1.20;;;12.30;99.90;;;;;;4974089;28;20022;-77
2022/05/30 05:58:09;;;;;;;3.90;1.42;;;12.60;99.90;;;;;;5012451;28;20039;-78
2022/05/30 06:00:35;;;;;;;1.95;1.20;;;13.00;99.90;;;;;;4970736;28;20053;-78
2022/05/30 06:03:02;;;;;;;1.08;0.93;;;13.30;99.90;;;;;;5015957;28;20520;-78
2022/05/30 06:05:47;;;;;;;1.38;1.20;;;13.50;99.90;;;;;;5017335;28;20069;-78
2022/05/30 06:08:34;;;;;;;1.20;1.10;;;13.60;99.90;;;;;;5008066;28;20044;-78
2022/05/30 06:11:24;;;;;;;1.60;1.50;;;13.90;99.90;;;;;;5023010;28;20034;-79
2022/05/30 06:13:57;;;;;;;1.20;1.10;;;13.90;99.90;;;;;;5006047;28;20519;-79
2022/05/30 06:16:25;;;;;;;3.15;1.25;;;14.00;99.90;;;;;;4997586;28;20045;-78
2022/05/30 06:18:55;;;;;;;0.95;0.93;;;14.30;99.90;;;;;;5007343;28;20052;-79
2022/05/30 06:21:24;;;;;;;1.67;0.90;;;14.60;98.30;;;;;;5003602;28;20642;-79
2022/05/30 06:23:52;;;;;;;3.47;0.90;;;14.70;98.40;;;;;;5016692;28;20520;-79
2022/05/30 06:26:37;;;;;;;2.55;0.80;;;14.80;95.70;;;;;;5014197;28;20056;-78
2022/05/30 06:29:14;;;;;;;1.75;0.90;;;14.90;96.00;;;;;;4996895;28;20042;-78
2022/05/30 06:31:41;;;;;;;2.55;0.93;;;15.30;96.10;;;;;;4993168;28;20108;-77
2022/05/30 06:34:07;;;;;;;1.10;1.00;;;15.90;95.60;;;;;;4980087;28;20022;-78
2022/05/30 06:36:40;;;;;;;2.45;1.20;;;16.20;92.80;;;;;;4994765;28;20056;-78
2022/05/30 06:39:07;;;;;;;2.42;1.05;;;16.10;91.50;;;;;;5003954;28;20026;-79
2022/05/30 06:41:41;;;;;;;2.42;1.30;;;16.20;91.80;;;;;;5008748;28;20021;-78
2022/05/30 06:44:09;;;;;;;1.75;1.40;;;16.40;91.70;;;;;;4988739;28;20559;-79
2022/05/30 06:46:53;;;;;;;4.18;1.50;;;16.40;91.70;;;;;;4997479;28;20099;-78
2022/05/30 06:49:38;;;;;;;1.60;1.23;;;16.70;91.20;;;;;;5021563;28;20052;-78
2022/05/30 06:52:05;;;;;;;3.40;1.30;;;17.00;90.40;;;;;;4975352;28;20177;-78
2022/05/30 06:54:31;;;;;;;4.65;1.67;;;17.30;90.10;;;;;;4986968;28;20041;-79
2022/05/30 06:59:41;;;;;;;2.63;1.80;;;16.70;86.00;;;;;;4982511;28;20030;-77
2022/05/30 07:02:09;;;;;;;1.73;1.63;;;16.80;84.50;;;;;;4974390;28;20381;-79
2022/05/30 07:04:53;;;;;;;2.22;1.48;;;16.60;84.00;;;;;;4985118;28;20050;-78
2022/05/30 07:07:42;;;;;;;1.55;1.30;;;16.70;86.20;;;;;;4996744;28;20639;-79
2022/05/30 07:10:28;;;;;;;2.17;1.30;;;16.70;86.40;;;;;;5011438;28;20183;-80
2022/05/30 07:13:14;;;;;;;2.53;1.33;;;16.60;83.90;;;;;;5009754;28;20034;-78
2022/05/30 07:15:40;;;;;;;2.50;1.20;;;16.60;83.60;;;;;;4989629;28;20042;-80
2022/05/30 07:18:13;;;;;;;4.60;1.63;;;16.40;84.00;;;;;;4982821;28;20648;-79
2022/05/30 07:20:40;;;;;;;3.08;1.27;;;16.60;83.80;;;;;;4980527;28;20019;-79
2022/05/30 07:23:25;;;;;;;1.30;1.13;;;16.40;82.30;;;;;;4996796;28;20448;-79
2022/05/30 07:26:13;;;;;;;2.75;1.33;;;16.60;85.00;;;;;;5013654;28;20048;-78
2022/05/30 07:28:57;;;;;;;2.63;1.30;;;17.10;84.30;;;;;;5016337;28;20064;-79
2022/05/30 07:31:43;;;;;;;3.78;1.50;;;17.50;83.80;;;;;;5009988;28;20068;-78
2022/05/30 07:34:28;;;;;;;2.85;1.55;;;17.90;83.10;;;;;;5010530;28;20097;-78
2022/05/30 07:37:13;;;;;;;1.70;1.27;;;18.40;79.20;;;;;;5013737;28;20064;-79
2022/05/30 07:40:05;;;;;;;1.98;1.38;;;18.60;74.40;;;;;;4980185;28;20053;-79
2022/05/30 07:42:54;;;;;;;3.47;1.23;;;18.10;73.40;;;;;;4997474;28;20030;-79
2022/05/30 07:45:46;;;;;;;1.15;1.02;;;18.00;74.30;;;;;;4999104;28;20527;-78
2022/05/30 07:48:26;;;;;;;1.52;1.10;;;18.10;74.70;;;;;;4981632;28;20041;-79
2022/05/30 07:51:12;;;;;;;2.67;1.13;;;18.30;76.10;;;;;;4982337;28;20104;-78
2022/05/30 07:53:49;;;;;;;1.60;1.17;;;18.50;70.70;;;;;;5000828;28;20025;-79
2022/05/30 07:56:32;;;;;;;2.58;1.10;;;18.60;73.50;;;;;;4996709;28;20113;-78
2022/05/30 07:58:58;;;;;;;2.58;1.15;;;18.80;72.00;;;;;;4997919;28;20022;-79
2022/05/30 08:01:24;;;;;;;3.88;1.42;;;18.90;71.20;;;;;;4978203;28;20080;-79
2022/05/30 08:03:51;;;;;;;2.30;1.02;;;18.90;72.20;;;;;;4977603;28;20029;-78
2022/05/30 08:06:35;;;;;;;2.70;1.00;;;19.00;72.80;;;;;;5014332;28;20101;-79
2022/05/30 08:09:10;;;;;;;3.70;1.38;;;19.00;67.30;;;;;;4997106;28;20293;-79
2022/05/30 08:11:46;;;;;;;1.42;1.10;;;18.50;68.80;;;;;;4990985;28;20585;-79
2022/05/30 08:14:30;;;;;;;1.02;0.80;;;18.30;70.20;;;;;;4979024;28;20519;-78
2022/05/30 08:16:56;;;;;;;8.27;1.77;;;18.10;69.80;;;;;;4973624;28;20034;-79
2022/05/30 08:19:23;;;;;;;1.73;1.00;;;18.10;73.00;;;;;;4976660;28;20494;-78
2022/05/30 08:21:49;;;;;;;2.05;0.88;;;18.20;74.00;;;;;;4999332;28;20041;-78
2022/05/30 08:24:15;;;;;;;0.75;0.52;;;18.40;70.40;;;;;;5021885;28;20034;-78
2022/05/30 08:26:45;;;;;;;2.92;1.00;;;18.40;69.10;;;;;;4999895;28;20026;-79
2022/05/30 08:29:35;;;;;;;1.45;0.60;;;18.50;68.50;;;;;;4995141;28;20503;-79
2022/05/30 08:32:01;;;;;;;2.00;0.82;;;18.70;68.10;;;;;;5001571;28;20022;-78
2022/05/30 08:34:52;;;;;;;1.23;0.60;;;18.70;68.40;;;;;;4983042;28;20041;-79
2022/05/30 08:37:18;;;;;;;1.38;0.50;;;18.50;64.20;;;;;;4971640;28;20038;-77
2022/05/30 08:42:31;;;;;;;2.67;0.50;;;17.30;59.60;;;;;;4998237;28;20404;-78
2022/05/30 08:45:09;;;;;;;1.45;0.60;;;17.10;65.60;;;;;;5015386;28;20038;-78
2022/05/30 08:47:52;;;;;;;1.08;0.70;;;16.90;61.30;;;;;;4997025;28;20669;-79
2022/05/30 08:50:40;;;;;;;1.80;0.70;;;16.90;65.40;;;;;;4975478;28;20075;-79
2022/05/30 08:53:42;;;;;;;1.20;0.68;;;17.10;66.00;;;;;;4979494;28;20793;-80
2022/05/30 08:56:47;;;;;;;1.80;0.60;;;17.40;68.90;;;;;;4976093;28;20053;-81
2022/05/30 09:00:11;;;;;;;1.88;0.75;;;17.80;66.80;;;;;;4907055;28;20034;-80
2022/05/30 09:03:15;;;;;;;1.48;0.80;;;18.10;65.90;;;;;;4977638;28;20116;-79
2022/05/30 09:05:49;;;;;;;0.90;0.77;;;18.20;60.10;;;;;;4973895;28;20080;-79
2022/05/30 09:08:24;;;;;;;2.80;0.80;;;18.20;61.70;;;;;;4988289;28;20032;-80
2022/05/30 09:11:04;;;;;;;1.38;0.70;;;18.30;65.60;;;;;;4995484;28;20026;-79
2022/05/30 09:13:39;;;;;;;0.60;0.60;;;18.20;65.70;;;;;;4985342;28;20039;-79
2022/05/30 09:16:30;;;;;;;2.60;0.80;;;18.20;65.30;;;;;;5005395;28;20364;-79
2022/05/30 09:19:01;;;;;;;1.90;0.90;;;17.90;65.40;;;;;;5003797;28;20048;-79
2022/05/30 09:21:31;;;;;;;1.92;0.75;;;17.80;69.00;;;;;;4978291;28;20781;-79
2022/05/30 09:23:59;;;;;;;1.50;0.68;;;17.50;68.30;;;;;;4973538;28;20066;-79
2022/05/30 09:26:33;;;;;;;1.02;0.60;;;17.30;66.60;;;;;;4995280;28;20033;-78
2022/05/30 09:29:19;;;;;;;0.90;0.80;;;17.20;66.90;;;;;;4992561;28;20065;-78
2022/05/30 09:32:33;;;;;;;0.40;0.40;;;17.20;67.80;;;;;;4994545;28;20045;-78
2022/05/30 09:35:37;;;;;;;2.00;0.90;;;17.10;71.70;;;;;;4996422;28;20091;-79
2022/05/30 09:38:25;;;;;;;1.75;0.60;;;17.10;71.40;;;;;;4994919;28;20057;-79
2022/05/30 09:41:39;;;;;;;2.67;0.70;;;17.10;73.70;;;;;;4982665;28;20452;-79
2022/05/30 09:44:17;;;;;;;2.25;0.93;;;17.30;71.20;;;;;;5008870;28;20038;-79
2022/05/30 09:47:05;;;;;;;0.80;0.80;;;17.40;70.30;;;;;;4988688;28;20026;-79
2022/05/30 09:49:36;;;;;;;;;;;17.40;68.10;;;;;;5024892;28;20045;-78
2022/05/30 09:52:35;;;;;;;0.73;0.70;;;17.30;68.00;;;;;;4993833;28;20422;-78
2022/05/30 09:55:24;;;;;;;;;;;17.10;70.10;;;;;;4990565;28;20033;-78
2022/05/30 09:57:54;;;;;;;1.95;0.70;;;17.00;69.60;;;;;;5001589;28;19910;-79
2022/05/30 10:00:54;;;;;;;2.28;0.73;;;16.80;72.80;;;;;;5001110;28;20034;-79
2022/05/30 10:03:31;;;;;;;4.45;0.65;;;16.60;76.50;;;;;;5016793;28;20058;-79
2022/05/30 10:06:27;;;;;;;1.58;1.30;;;16.40;78.70;;;;;;4985412;28;20121;-77
2022/05/30 10:09:21;;;;;;;0.63;0.57;;;16.20;80.30;;;;;;5003983;28;20029;-79
2022/05/30 10:11:54;;;;;;;2.58;1.63;;;16.10;82.30;;;;;;5002895;28;20029;-79
2022/05/30 10:14:23;;;;;;;2.55;0.63;;;16.00;82.00;;;;;;5018605;28;20030;-79
2022/05/30 10:17:35;;;;;;;0.95;0.80;;;16.00;76.00;;;;;;5017991;28;20033;-79
2022/05/30 10:20:09;;;;;;;1.30;0.70;;;16.10;76.90;;;;;;5028283;28;20116;-79
2022/05/30 10:28:14;;;;;;;0.63;0.50;;;16.40;72.90;;;;;;5016003;28;20111;-80
2022/05/30 10:30:11;;;;;;;3.03;0.80;;;16.70;72.70;;;;;;5018543;28;20683;-80
2022/05/30 10:33:34;;;;;;;1.65;0.80;;;17.00;68.10;;;;;;5016502;28;20121;-80
2022/05/30 10:36:29;;;;;;;0.77;0.65;;;17.10;67.60;;;;;;5003957;28;20018;-79
2022/05/30 10:39:11;;;;;;;1.45;0.50;;;17.10;70.90;;;;;;5001141;28;20026;-80
2022/05/30 10:41:54;;;;;;;1.55;1.00;;;17.00;71.40;;;;;;4999381;28;20370;-80
2022/05/30 10:44:26;;;;;;;0.70;0.65;;;16.80;69.80;;;;;;5021053;28;20044;-79
2022/05/30 10:47:26;;;;;;;1.20;0.77;;;16.70;70.70;;;;;;4994966;28;20057;-80
2022/05/30 10:50:07;;;;;;;0.90;0.63;;;16.50;73.00;;;;;;5015417;28;20034;-79
2022/05/30 10:52:41;;;;;;;1.98;0.70;;;16.50;71.70;;;;;;4999507;28;20030;-80
2022/05/30 10:55:34;;;;;;;0.75;0.43;;;16.40;73.30;;;;;;4998731;28;20072;-79
2022/05/30 10:58:04;;;;;;;1.00;0.75;;;16.40;72.50;;;;;;5022442;28;20094;-79
2022/05/30 11:00:45;;;;;;;0.68;0.68;;;16.50;74.30;;;;;;5000072;28;20023;-79
2022/05/30 11:03:26;;;;;;;1.55;0.93;;;16.70;77.10;;;;;;4981309;28;20035;-80
2022/05/30 11:05:57;;;;;;;0.95;0.70;;;16.90;74.50;;;;;;5015519;28;20022;-78
2022/05/30 11:08:44;;;;;;;1.60;0.90;;;17.20;74.70;;;;;;5013275;28;20034;-79
2022/05/30 11:11:33;;;;;;;3.08;0.70;;;17.50;74.00;;;;;;5010627;28;20052;-79
2022/05/30 11:14:15;;;;;;;1.27;0.90;;;17.60;70.90;;;;;;5021056;28;20049;-79
2022/05/30 11:17:18;;;;;;;1.20;0.80;;;17.50;70.70;;;;;;5016999;28;20068;-78
2022/05/30 11:20:18;;;;;;;0.77;0.73;;;17.40;71.40;;;;;;5016945;28;20576;-79
2022/05/30 11:22:52;;;;;;;0.80;0.80;;;17.10;69.80;;;;;;5012316;28;20112;-79
2022/05/30 11:25:56;;;;;;;3.55;0.98;;;16.80;70.40;;;;;;4999099;28;20034;-79
2022/05/30 11:28:52;;;;;;;0.95;0.77;;;16.50;71.70;;;;;;5026971;28;20136;-78
2022/05/30 11:31:34;;;;;;;0.80;0.80;;;16.30;71.00;;;;;;5005962;28;20037;-80
2022/05/30 11:34:29;;;;;;;0.85;0.80;;;16.20;73.00;;;;;;5000277;28;20036;-79
2022/05/30 11:37:23;;;;;;;1.92;1.15;;;16.20;72.80;;;;;;5016811;28;20030;-77
2022/05/30 11:40:22;;;;;;;0.82;0.70;;;16.20;72.70;;;;;;4993348;28;20144;-78
2022/05/30 11:43:07;;;;;;;0.73;0.70;;;16.30;74.10;;;;;;5034949;28;20025;-78
2022/05/30 11:45:54;;;;;;;0.90;0.70;;;16.30;72.10;;;;;;5029217;28;20035;-78
2022/05/30 11:48:39;;;;;;;1.23;0.90;;;16.30;71.60;;;;;;5014172;28;20481;-79
2022/05/30 11:51:34;;;;;;;1.70;0.55;;;16.40;72.40;;;;;;5023467;28;20037;-79
2022/05/30 11:54:14;;;;;;;0.93;0.65;;;16.40;75.20;;;;;;5001730;28;20042;-80
2022/05/30 11:57:10;;;;;;;3.38;1.20;;;16.40;73.30;;;;;;5003711;28;20034;-79
2022/05/30 11:59:56;;;;;;;0.65;0.60;;;16.50;76.40;;;;;;5022874;28;20029;-81
2022/05/30 12:02:51;;;;;;;2.42;0.90;;;16.70;78.00;;;;;;5000831;28;20023;-78
2022/05/30 12:06:02;;;;;;;3.13;0.77;;;16.90;75.30;;;;;;4978878;28;20061;-81
2022/05/30 12:08:42;;;;;;;0.80;0.80;;;17.10;72.80;;;;;;4978062;28;20107;-79
2022/05/30 12:11:27;;;;;;;1.30;0.80;;;17.20;73.70;;;;;;5020986;28;20029;-79
2022/05/30 12:14:31;;;;;;;3.13;1.10;;;17.20;64.40;;;;;;4979120;28;20041;-79
2022/05/30 12:17:09;;;;;;;1.13;1.02;;;17.00;63.90;;;;;;5018191;28;20133;-79
2022/05/30 12:25:52;;;;;;;1.58;0.90;;;17.10;68.80;;;;;;5007520;28;20499;-78
2022/05/30 12:28:28;;;;;;;0.95;0.70;;;17.10;70.40;;;;;;4990305;28;20052;-78
2022/05/30 12:31:00;;;;;;;0.70;0.70;;;17.20;73.50;;;;;;5018987;28;20036;-79
2022/05/30 12:33:28;;;;;;;1.20;0.73;;;17.20;75.90;;;;;;4989996;28;20042;-79
2022/05/30 12:36:09;;;;;;;1.00;0.90;;;17.10;75.60;;;;;;4995950;28;20500;-79
2022/05/30 12:38:55;;;;;;;0.68;0.68;;;17.20;77.20;;;;;;4982977;28;20049;-80
2022/05/30 12:41:32;;;;;;;0.73;0.73;;;17.20;74.40;;;;;;4997829;28;20041;-79
2022/05/30 12:43:59;;;;;;;0.60;0.60;;;17.30;73.70;;;;;;4999465;28;20053;-80
2022/05/30 12:46:28;;;;;;;1.50;0.70;;;17.50;72.50;;;;;;5000193;28;20130;-80
2022/05/30 12:49:02;;;;;;;1.02;0.70;;;17.70;70.50;;;;;;5002519;28;20401;-78
2022/05/30 12:52:11;;;;;;;1.85;0.80;;;17.80;69.40;;;;;;5005992;28;20062;-79
2022/05/30 12:54:57;;;;;;;1.00;0.70;;;17.80;70.10;;;;;;4996948;28;20042;-79
2022/05/30 12:57:39;;;;;;;1.45;0.70;;;18.10;68.80;;;;;;4983818;28;20067;-80
2022/05/30 13:00:19;;;;;;;1.52;0.73;;;18.20;66.10;;;;;;4992341;28;20049;-78
2022/05/30 13:03:03;;;;;;;0.70;0.70;;;18.20;66.80;;;;;;5014971;28;20041;-80
2022/05/30 13:05:41;;;;;;;1.10;0.68;;;18.20;65.60;;;;;;5001918;28;20035;-80
2022/05/30 13:08:46;;;;;;;1.40;0.80;;;18.20;67.20;;;;;;4993579;28;20060;-80
2022/05/30 13:11:31;;;;;;;0.60;0.60;;;18.10;65.40;;;;;;5003520;28;20531;-79
2022/05/30 13:14:15;;;;;;;0.77;0.57;;;18.00;66.00;;;;;;4993855;28;20033;-79
2022/05/30 13:16:43;;;;;;;0.93;0.80;;;18.10;65.40;;;;;;5010233;28;20041;-80
2022/05/30 13:19:12;;;;;;;2.40;0.60;;;18.40;64.50;;;;;;5019124;28;20018;-80
2022/05/30 13:21:42;;;;;;;0.82;0.60;;;18.30;63.90;;;;;;5014523;28;20022;-79
2022/05/30 13:24:32;;;;;;;0.80;0.50;;;18.20;63.70;;;;;;4995535;28;20034;-78
2022/05/30 13:27:00;;;;;;;1.67;0.90;;;17.90;65.20;;;;;;5024289;28;20037;-79
2022/05/30 13:29:35;;;;;;;1.00;0.60;;;17.70;65.00;;;;;;5004795;28;20504;-79
2022/05/30 13:32:04;;;;;;;2.05;0.60;;;17.50;67.00;;;;;;5000010;28;20407;-80
2022/05/30 13:34:34;;;;;;;1.30;0.50;;;17.40;67.90;;;;;;4977838;28;20034;-79
2022/05/30 13:37:02;;;;;;;0.93;0.60;;;17.20;67.50;;;;;;4996210;28;20080;-80
2022/05/30 13:39:28;;;;;;;1.85;0.60;;;17.10;71.60;;;;;;4995888;28;20069;-79
2022/05/30 13:41:54;;;;;;;1.13;0.60;;;17.10;69.00;;;;;;5018536;28;20030;-79
2022/05/30 13:44:22;;;;;;;0.70;0.55;;;17.10;70.20;;;;;;5016151;28;20033;-81
2022/05/30 13:46:50;;;;;;;0.55;0.55;;;17.30;71.70;;;;;;5020543;28;20060;-79
2022/05/30 13:49:39;;;;;;;0.60;0.60;;;17.40;68.40;;;;;;5025135;28;20029;-81
2022/05/30 13:52:27;;;;;;;0.70;0.70;;;17.40;68.30;;;;;;5022815;28;20033;-78
2022/05/30 13:55:01;;;;;;;0.95;0.85;;;17.50;72.10;;;;;;5018017;28;20069;-79
2022/05/30 13:57:30;;;;;;;0.65;0.65;;;17.50;69.40;;;;;;5000915;28;20038;-79
2022/05/30 14:00:00;;;;;;;0.30;0.30;;;17.50;71.90;;;;;;4992555;28;20539;-79
2022/05/30 14:02:33;;;;;;;0.47;0.40;;;17.60;73.30;;;;;;5004747;28;20048;-79
2022/05/30 14:05:05;;;;;;;0.68;0.45;;;17.70;71.30;;;;;;5019245;28;20029;-79
2022/05/30 14:07:35;;;;;;;0.40;0.40;;;17.70;70.00;;;;;;5000854;28;20037;-79